createdAt,value
2022-10-25T00:00:06.511Z,5.10
2022-10-25T00:02:36.783Z,5.30
2022-10-25T00:05:04.418Z,4.60
2022-10-25T00:07:31.591Z,4.40
2022-10-25T00:09:58.726Z,3.63
2022-10-25T00:12:25.903Z,3.90
2022-10-25T00:14:54.576Z,4.30
2022-10-25T00:17:21.676Z,3.73
2022-10-25T00:19:48.794Z,3.73
2022-10-25T00:22:16.062Z,3.40
2022-10-25T00:24:43.141Z,3.80
2022-10-25T00:27:10.234Z,4.70
2022-10-25T00:29:37.422Z,3.93
2022-10-25T00:32:04.572Z,4.40
2022-10-25T00:34:31.716Z,3.83
2022-10-25T00:36:58.833Z,4.10
2022-10-25T00:39:25.926Z,3.97
2022-10-25T00:41:53.030Z,4.50
2022-10-25T00:44:39.006Z,3.33
2022-10-25T00:47:12.048Z,3.10
2022-10-25T00:49:39.152Z,2.97
2022-10-25T00:52:06.342Z,4.53
2022-10-25T00:54:34.640Z,3.30
2022-10-25T00:57:02.748Z,3.70
2022-10-25T00:59:29.905Z,4.00
2022-10-25T01:01:57.165Z,4.17
2022-10-25T01:04:25.738Z,2.97
2022-10-25T01:06:52.829Z,3.03
2022-10-25T01:09:21.004Z,3.17
2022-10-25T01:11:48.171Z,3.50
2022-10-25T01:14:15.655Z,3.50
2022-10-25T01:16:42.711Z,3.50
2022-10-25T01:19:12.607Z,3.27
2022-10-25T01:21:39.672Z,4.20
2022-10-25T01:24:10.696Z,3.70
2022-10-25T01:26:45.072Z,3.70
2022-10-25T01:29:27.071Z,3.47
2022-10-25T01:32:01.810Z,3.50
2022-10-25T01:34:38.096Z,2.90
2022-10-25T01:37:26.137Z,3.63
2022-10-25T01:39:58.491Z,3.67
2022-10-25T01:42:34.765Z,4.20
2022-10-25T01:45:09.436Z,4.07
2022-10-25T01:47:38.644Z,3.43
2022-10-25T01:50:05.870Z,3.17
2022-10-25T01:52:33.063Z,3.57
2022-10-25T01:55:00.144Z,3.67
2022-10-25T01:57:27.261Z,2.70
2022-10-25T02:03:41.593Z,3.60
2022-10-25T02:06:27.780Z,3.60
2022-10-25T02:09:00.260Z,3.20
2022-10-25T02:11:28.370Z,3.03
2022-10-25T02:13:59.361Z,3.13
2022-10-25T02:16:30.556Z,3.33
2022-10-25T02:18:59.689Z,4.10
2022-10-25T02:21:26.895Z,3.20
2022-10-25T02:23:54.014Z,2.90
2022-10-25T02:26:21.171Z,2.73
2022-10-25T02:28:48.280Z,3.27
2022-10-25T02:31:18.850Z,3.30
2022-10-25T02:33:46.286Z,2.70
2022-10-25T02:36:17.278Z,2.53
2022-10-25T02:38:44.520Z,2.80
2022-10-25T02:41:11.770Z,3.30
2022-10-25T02:43:38.928Z,3.17
2022-10-25T02:46:06.988Z,3.43
2022-10-25T02:48:34.196Z,2.67
2022-10-25T02:51:01.407Z,2.47
2022-10-25T02:53:28.581Z,2.97
2022-10-25T02:56:02.009Z,2.77
2022-10-25T02:58:32.732Z,3.27
2022-10-25T03:01:00.100Z,3.00
2022-10-25T03:03:27.401Z,2.90
2022-10-25T03:05:54.547Z,2.60
2022-10-25T03:08:21.831Z,2.40
2022-10-25T03:10:49.115Z,2.70
2022-10-25T03:13:16.233Z,2.60
2022-10-25T03:15:43.920Z,2.90
2022-10-25T03:18:11.203Z,2.10
2022-10-25T03:20:40.260Z,2.63
2022-10-25T03:23:07.380Z,2.10
2022-10-25T03:25:34.613Z,3.03
2022-10-25T03:28:01.811Z,3.10
2022-10-25T03:30:29.584Z,2.97
2022-10-25T03:32:56.918Z,3.03
2022-10-25T03:35:24.043Z,3.10
2022-10-25T03:37:51.585Z,2.97
2022-10-25T03:40:19.085Z,2.73
2022-10-25T03:42:46.222Z,2.73
2022-10-25T03:45:13.467Z,2.57
2022-10-25T03:47:40.720Z,2.93
2022-10-25T03:50:08.116Z,2.87
2022-10-25T03:52:35.395Z,2.47
2022-10-25T03:55:04.718Z,2.40
2022-10-25T03:57:31.876Z,2.57
2022-10-25T03:59:59.711Z,2.90
2022-10-25T04:02:27.127Z,2.43
2022-10-25T04:04:54.273Z,2.60
2022-10-25T04:07:21.479Z,2.37
2022-10-25T04:09:48.627Z,2.23
2022-10-25T04:12:15.797Z,2.30
2022-10-25T04:14:42.877Z,2.47
2022-10-25T04:17:10.022Z,2.67
2022-10-25T04:19:37.115Z,2.37
2022-10-25T04:22:04.358Z,3.00
2022-10-25T04:24:31.591Z,2.87
2022-10-25T04:26:58.757Z,2.33
2022-10-25T04:29:25.993Z,1.77
2022-10-25T04:31:53.093Z,2.43
2022-10-25T04:34:20.226Z,2.10
2022-10-25T04:36:47.422Z,2.20
2022-10-25T04:39:14.588Z,2.40
2022-10-25T04:41:41.816Z,2.10
2022-10-25T04:44:09.048Z,2.20
2022-10-25T04:46:36.142Z,2.87
2022-10-25T04:49:03.289Z,2.40
2022-10-25T04:51:30.687Z,2.40
2022-10-25T04:53:57.792Z,2.23
2022-10-25T04:56:24.985Z,2.57
2022-10-25T04:58:52.104Z,2.47
2022-10-25T05:01:19.700Z,2.13
2022-10-25T05:03:46.921Z,2.10
2022-10-25T05:06:14.886Z,2.60
2022-10-25T05:08:44.555Z,2.57
2022-10-25T05:11:11.984Z,2.90
2022-10-25T05:13:39.432Z,2.33
2022-10-25T05:16:06.781Z,2.53
2022-10-25T05:18:34.099Z,2.30
2022-10-25T05:21:04.236Z,2.27
2022-10-25T05:23:31.592Z,2.40
2022-10-25T05:26:17.210Z,2.43
2022-10-25T05:28:44.772Z,2.30
2022-10-25T05:31:16.076Z,2.40
2022-10-25T05:33:47.288Z,2.30
2022-10-25T05:36:14.673Z,2.80
2022-10-25T05:38:41.995Z,2.50
2022-10-25T05:41:09.390Z,2.50
2022-10-25T05:43:36.567Z,1.90
2022-10-25T05:46:11.025Z,2.10
2022-10-25T05:48:38.383Z,2.50
2022-10-25T05:51:32.196Z,1.90
2022-10-25T05:54:01.003Z,2.80
2022-10-25T05:56:28.818Z,2.40
2022-10-25T05:58:59.163Z,2.77
2022-10-25T06:01:27.014Z,2.30
2022-10-25T06:03:56.678Z,2.33
2022-10-25T06:06:24.208Z,2.10
2022-10-25T06:08:51.433Z,2.80
2022-10-25T06:11:19.104Z,2.50
2022-10-25T06:13:46.508Z,2.27
2022-10-25T06:16:14.733Z,2.30
2022-10-25T06:18:42.119Z,2.90
2022-10-25T06:21:10.203Z,3.00
2022-10-25T06:23:37.599Z,2.90
2022-10-25T06:26:05.981Z,3.00
2022-10-25T06:28:33.172Z,3.50
2022-10-25T06:31:03.659Z,4.53
2022-10-25T06:33:32.503Z,11.13
2022-10-25T06:35:59.923Z,9.30
2022-10-25T06:38:27.184Z,9.03
2022-10-25T06:41:14.519Z,12.60
2022-10-25T06:43:41.741Z,18.00
2022-10-25T06:46:12.577Z,15.57
2022-10-25T06:48:39.685Z,19.20
2022-10-25T06:51:09.138Z,33.23
2022-10-25T06:53:36.438Z,71.27
2022-10-25T06:56:05.010Z,19.73
2022-10-25T06:58:33.528Z,33.83
2022-10-25T07:01:06.548Z,28.13
2022-10-25T07:03:36.593Z,36.63
2022-10-25T07:06:06.098Z,55.37
2022-10-25T07:08:33.843Z,29.40
2022-10-25T07:11:01.017Z,26.13
2022-10-25T07:13:28.115Z,6.50
2022-10-25T07:15:55.213Z,18.43
2022-10-25T07:18:22.311Z,16.43
2022-10-25T07:20:50.599Z,5.07
2022-10-25T07:23:17.708Z,6.67
2022-10-25T07:25:44.850Z,6.50
2022-10-25T07:28:12.304Z,10.97
2022-10-25T07:30:44.225Z,6.77
2022-10-25T07:33:11.362Z,16.33
2022-10-25T07:35:46.795Z,5.50
2022-10-25T07:38:27.742Z,8.23
2022-10-25T07:40:58.315Z,35.77
2022-10-25T07:43:28.618Z,22.60
2022-10-25T07:45:55.847Z,15.53
2022-10-25T07:48:23.134Z,14.87
2022-10-25T07:50:50.265Z,21.83
2022-10-25T07:53:17.370Z,5.80
2022-10-25T07:55:44.498Z,9.73
2022-10-25T07:58:12.434Z,5.80
2022-10-25T08:00:39.506Z,3.40
2022-10-25T08:03:06.776Z,2.17
2022-10-25T08:05:33.948Z,1.83
2022-10-25T08:08:01.071Z,2.80
2022-10-25T08:10:28.384Z,4.40
2022-10-25T08:12:55.996Z,3.47
2022-10-25T08:15:23.174Z,2.97
2022-10-25T08:17:57.423Z,2.23
2022-10-25T08:20:43.081Z,1.70
2022-10-25T08:23:11.687Z,2.40
2022-10-25T08:25:38.783Z,1.67
2022-10-25T08:28:06.033Z,1.87
2022-10-25T08:30:33.355Z,2.23
2022-10-25T08:33:00.489Z,2.03
2022-10-25T08:35:27.803Z,1.97
2022-10-25T08:37:55.693Z,1.70
2022-10-25T08:40:25.596Z,1.53
2022-10-25T08:43:22.538Z,1.53
2022-10-25T08:46:05.978Z,1.57
2022-10-25T08:51:41.292Z,1.60
2022-10-25T08:54:19.704Z,1.10
2022-10-25T08:56:57.262Z,1.60
2022-10-25T08:59:31.690Z,1.67
2022-10-25T09:02:00.561Z,1.33
2022-10-25T09:04:29.745Z,1.63
2022-10-25T09:07:02.870Z,1.57
2022-10-25T09:09:34.203Z,1.53
2022-10-25T09:12:15.561Z,1.30
2022-10-25T09:14:51.784Z,1.60
2022-10-25T09:17:20.106Z,1.43
2022-10-25T09:19:47.309Z,1.50
2022-10-25T09:24:54.047Z,0.80
2022-10-25T09:27:31.041Z,1.23
2022-10-25T09:30:07.499Z,1.20
2022-10-25T09:32:34.800Z,1.00
2022-10-25T09:35:02.155Z,1.50
2022-10-25T09:37:30.994Z,2.60
2022-10-25T09:40:00.469Z,1.17
2022-10-25T09:42:31.782Z,1.10
2022-10-25T09:45:02.995Z,1.47
2022-10-25T09:47:48.784Z,1.00
2022-10-25T09:50:17.739Z,9.80
2022-10-25T09:52:44.938Z,2.37
2022-10-25T09:55:33.025Z,1.60
2022-10-25T09:58:00.226Z,3.63
2022-10-25T10:00:27.353Z,1.60
2022-10-25T10:02:55.344Z,1.00
2022-10-25T10:05:23.076Z,1.03
2022-10-25T10:07:50.680Z,1.47
2022-10-25T10:10:21.706Z,1.73
2022-10-25T10:13:03.505Z,1.70
2022-10-25T10:15:36.548Z,1.30
2022-10-25T10:18:43.671Z,1.20
2022-10-25T10:21:10.840Z,1.20
2022-10-25T10:23:43.860Z,0.97
2022-10-25T10:26:11.077Z,1.20
2022-10-25T10:28:38.193Z,1.27
2022-10-25T10:31:05.415Z,1.00
2022-10-25T10:33:32.928Z,1.17
2022-10-25T10:36:19.985Z,1.27
2022-10-25T10:38:47.202Z,1.13
2022-10-25T10:41:15.220Z,1.17
2022-10-25T10:43:42.376Z,0.97
2022-10-25T10:46:10.928Z,1.17
2022-10-25T10:48:42.007Z,1.40
2022-10-25T10:51:25.184Z,0.90
2022-10-25T10:53:58.014Z,0.73
2022-10-25T10:56:25.170Z,1.00
2022-10-25T10:58:53.666Z,2.13
2022-10-25T11:01:31.018Z,1.00
2022-10-25T11:04:00.193Z,1.20
2022-10-25T11:06:34.852Z,1.50
2022-10-25T11:09:20.301Z,1.10
2022-10-25T11:12:14.929Z,0.90
2022-10-25T11:14:42.079Z,1.03
2022-10-25T11:17:18.583Z,1.20
2022-10-25T11:20:35.804Z,1.40
2022-10-25T11:23:09.630Z,1.50
2022-10-25T11:25:40.101Z,0.90
2022-10-25T11:28:13.169Z,0.90
2022-10-25T11:30:41.531Z,0.90
2022-10-25T11:33:08.545Z,0.70
2022-10-25T11:35:35.639Z,0.87
2022-10-25T11:38:03.557Z,0.90
2022-10-25T11:40:31.574Z,0.70
2022-10-25T11:43:01.496Z,0.67
2022-10-25T11:45:28.607Z,0.80
2022-10-25T11:48:15.761Z,0.80
2022-10-25T11:50:58.031Z,0.70
2022-10-25T11:53:43.917Z,1.30
2022-10-25T11:56:20.927Z,0.63
2022-10-25T11:59:06.877Z,0.70
2022-10-25T12:01:49.433Z,1.17
2022-10-25T12:04:19.546Z,0.67
2022-10-25T12:06:48.759Z,0.70
2022-10-25T12:09:18.498Z,0.70
2022-10-25T12:11:46.631Z,0.70
2022-10-25T12:14:14.778Z,0.80
2022-10-25T12:16:42.021Z,0.63
2022-10-25T12:19:13.757Z,0.40
2022-10-25T12:21:45.723Z,0.67
2022-10-25T12:24:16.662Z,1.20
2022-10-25T12:26:43.844Z,0.80
2022-10-25T12:29:21.905Z,1.20
2022-10-25T12:31:56.976Z,0.90
2022-10-25T12:34:24.172Z,0.70
2022-10-25T12:36:53.285Z,0.90
2022-10-25T12:39:24.900Z,0.83
2022-10-25T12:42:14.514Z,0.63
2022-10-25T12:44:41.638Z,0.80
2022-10-25T12:47:08.794Z,0.50
2022-10-25T12:49:37.248Z,0.67
2022-10-25T12:52:19.811Z,0.70
2022-10-25T12:54:58.785Z,0.60
2022-10-25T12:57:32.577Z,0.53
2022-10-25T12:59:59.716Z,0.50
2022-10-25T13:02:59.189Z,0.50
2022-10-25T13:05:45.023Z,0.80
2022-10-25T13:08:12.247Z,0.70
2022-10-25T13:10:50.132Z,0.50
2022-10-25T13:13:22.678Z,0.47
2022-10-25T13:15:50.164Z,1.10
2022-10-25T13:18:35.194Z,0.70
2022-10-25T13:21:02.568Z,0.90
2022-10-25T13:23:51.546Z,0.87
2022-10-25T13:26:19.714Z,0.70
2022-10-25T13:28:56.862Z,0.93
2022-10-25T13:31:30.111Z,0.60
2022-10-25T13:34:15.363Z,0.60
2022-10-25T13:36:54.255Z,0.87
2022-10-25T13:39:41.594Z,0.40
2022-10-25T13:42:09.827Z,0.60
2022-10-25T13:44:40.196Z,0.80
2022-10-25T13:47:17.093Z,0.60
2022-10-25T13:49:44.151Z,0.57
2022-10-25T13:52:41.063Z,0.60
2022-10-25T13:55:10.134Z,0.60
2022-10-25T13:57:52.514Z,0.50
2022-10-25T14:00:22.401Z,0.50
2022-10-25T14:03:08.103Z,0.50
2022-10-25T14:06:01.616Z,0.67
2022-10-25T14:08:40.828Z,0.83
2022-10-25T14:11:11.879Z,1.20
2022-10-25T14:13:53.121Z,0.93
2022-10-25T14:16:25.493Z,0.90
2022-10-25T14:18:52.703Z,0.70
2022-10-25T14:21:19.744Z,0.50
2022-10-25T14:23:48.954Z,1.00
2022-10-25T14:26:16.270Z,0.80
2022-10-25T14:28:43.454Z,0.80
2022-10-25T14:31:14.727Z,0.60
2022-10-25T14:33:46.067Z,0.80
2022-10-25T14:36:19.286Z,0.60
2022-10-25T14:38:56.318Z,0.50
2022-10-25T14:41:24.696Z,0.87
2022-10-25T14:43:51.911Z,2.13
2022-10-25T14:46:19.892Z,0.60
2022-10-25T14:48:47.670Z,1.00
2022-10-25T14:51:19.757Z,1.00
2022-10-25T14:53:51.495Z,0.87
2022-10-25T14:56:22.359Z,0.87
2022-10-25T14:58:49.519Z,0.90
2022-10-25T15:01:18.417Z,2.13
2022-10-25T15:03:45.593Z,1.17
2022-10-25T15:06:13.019Z,1.03
2022-10-25T15:08:40.387Z,0.83
2022-10-25T15:11:10.377Z,0.93
2022-10-25T15:13:44.731Z,1.00
2022-10-25T15:16:30.760Z,1.37
2022-10-25T15:19:07.483Z,0.97
2022-10-25T15:21:44.377Z,1.00
2022-10-25T15:24:24.804Z,0.80
2022-10-25T15:26:52.745Z,2.10
2022-10-25T15:29:52.310Z,1.20
2022-10-25T15:32:20.254Z,0.97
2022-10-25T15:34:48.450Z,1.13
2022-10-25T15:37:15.915Z,1.10
2022-10-25T15:39:44.393Z,0.90
2022-10-25T15:42:14.467Z,0.77
2022-10-25T15:44:44.375Z,0.90
2022-10-25T15:47:18.250Z,1.00
2022-10-25T15:49:45.433Z,1.00
2022-10-25T15:52:13.052Z,0.97
2022-10-25T15:54:40.157Z,0.70
2022-10-25T15:57:07.188Z,1.73
2022-10-25T15:59:34.275Z,2.17
2022-10-25T16:02:02.455Z,2.07
2022-10-25T16:04:29.842Z,1.47
2022-10-25T16:06:57.104Z,1.20
2022-10-25T16:09:24.159Z,2.70
2022-10-25T16:11:54.058Z,2.37
2022-10-25T16:14:22.480Z,1.73
2022-10-25T16:16:49.698Z,1.30
2022-10-25T16:19:17.110Z,1.60
2022-10-25T16:21:44.302Z,3.63
2022-10-25T16:24:11.547Z,1.70
2022-10-25T16:26:41.597Z,1.43
2022-10-25T16:29:09.881Z,1.57
2022-10-25T16:31:36.986Z,1.50
2022-10-25T16:34:04.027Z,2.00
2022-10-25T16:36:31.052Z,0.70
2022-10-25T16:38:58.378Z,1.30
2022-10-25T16:41:26.462Z,1.50
2022-10-25T16:43:53.477Z,1.33
2022-10-25T16:46:22.877Z,1.60
2022-10-25T16:48:49.885Z,1.47
2022-10-25T16:51:17.206Z,1.30
2022-10-25T16:53:44.438Z,0.90
2022-10-25T16:56:11.518Z,1.60
2022-10-25T16:58:38.871Z,1.40
2022-10-25T17:01:26.350Z,1.30
2022-10-25T17:03:54.003Z,1.40
2022-10-25T17:06:41.403Z,1.30
2022-10-25T17:09:08.211Z,2.00
2022-10-25T17:11:36.197Z,1.30
2022-10-25T17:14:03.243Z,1.37
2022-10-25T17:16:30.324Z,1.27
2022-10-25T17:18:57.384Z,1.30
2022-10-25T17:21:24.470Z,1.43
2022-10-25T17:23:52.415Z,1.90
2022-10-25T17:26:19.442Z,1.60
2022-10-25T17:28:46.542Z,1.57
2022-10-25T17:31:14.214Z,1.23
2022-10-25T17:33:41.681Z,1.40
2022-10-25T17:36:09.603Z,1.60
2022-10-25T17:38:36.655Z,3.23
2022-10-25T17:41:03.874Z,1.80
2022-10-25T17:43:30.977Z,1.70
2022-10-25T17:46:04.402Z,1.00
2022-10-25T17:48:31.466Z,1.57
2022-10-25T17:51:08.868Z,1.30
2022-10-25T17:53:35.998Z,1.40
2022-10-25T17:56:15.435Z,1.47
2022-10-25T17:58:42.852Z,1.40
2022-10-25T18:01:10.382Z,1.50
2022-10-25T18:03:38.059Z,1.63
2022-10-25T18:06:05.915Z,1.60
2022-10-25T18:08:32.994Z,1.73
2022-10-25T18:11:01.570Z,2.20
2022-10-25T18:13:29.476Z,1.63
2022-10-25T18:15:56.591Z,1.20
2022-10-25T18:18:23.783Z,1.90
2022-10-25T18:20:51.611Z,1.90
2022-10-25T18:23:19.045Z,1.30
2022-10-25T18:25:52.730Z,2.00
2022-10-25T18:28:19.904Z,1.40
2022-10-25T18:30:46.924Z,1.70
2022-10-25T18:33:14.925Z,1.40
2022-10-25T18:35:42.223Z,1.60
2022-10-25T18:38:09.292Z,2.60
2022-10-25T18:40:36.317Z,1.87
2022-10-25T18:43:05.407Z,1.90
2022-10-25T18:45:35.602Z,1.80
2022-10-25T18:48:02.637Z,1.87
2022-10-25T18:50:29.662Z,1.90
2022-10-25T18:52:56.790Z,1.80
2022-10-25T18:55:26.614Z,2.03
2022-10-25T18:57:54.740Z,2.10
2022-10-25T19:00:27.579Z,2.40
2022-10-25T19:02:56.284Z,1.70
2022-10-25T19:05:23.785Z,2.20
2022-10-25T19:07:51.101Z,2.67
2022-10-25T19:10:18.444Z,2.57
2022-10-25T19:12:45.591Z,2.20
2022-10-25T19:15:13.127Z,2.33
2022-10-25T19:17:40.186Z,2.60
2022-10-25T19:20:07.586Z,1.83
2022-10-25T19:22:34.709Z,1.70
2022-10-25T19:25:01.789Z,2.13
2022-10-25T19:27:29.693Z,1.90
2022-10-25T19:29:57.786Z,2.50
2022-10-25T19:32:24.981Z,2.63
2022-10-25T19:34:52.153Z,2.40
2022-10-25T19:37:19.296Z,2.40
2022-10-25T19:39:46.409Z,2.60
2022-10-25T19:42:13.473Z,3.07
2022-10-25T19:44:40.536Z,3.93
2022-10-25T19:47:07.615Z,3.60
2022-10-25T19:49:34.636Z,3.30
2022-10-25T19:52:01.694Z,3.50
2022-10-25T19:54:29.841Z,4.03
2022-10-25T19:56:57.216Z,4.10
2022-10-25T19:59:24.267Z,3.87
2022-10-25T20:01:51.543Z,4.03
2022-10-25T20:04:18.693Z,4.60
2022-10-25T20:06:45.752Z,4.83
2022-10-25T20:09:15.021Z,3.87
2022-10-25T20:11:42.169Z,3.63
2022-10-25T20:14:09.342Z,3.73
2022-10-25T20:16:36.437Z,4.90
2022-10-25T20:19:03.912Z,4.50
2022-10-25T20:21:31.981Z,4.63
2022-10-25T20:23:59.746Z,5.43
2022-10-25T20:26:27.855Z,5.60
2022-10-25T20:28:55.347Z,5.20
2022-10-25T20:31:23.090Z,4.93
2022-10-25T20:33:50.219Z,5.47
2022-10-25T20:36:21.406Z,5.67
2022-10-25T20:38:48.510Z,5.93
2022-10-25T20:41:16.470Z,5.93
2022-10-25T20:43:46.162Z,6.00
2022-10-25T20:46:13.229Z,6.27
2022-10-25T20:48:47.196Z,6.80
2022-10-25T20:51:15.525Z,8.33
2022-10-25T20:53:44.202Z,6.47
2022-10-25T20:56:11.379Z,6.50
2022-10-25T20:58:38.599Z,6.73
2022-10-25T21:01:05.872Z,6.13
2022-10-25T21:03:33.182Z,5.93
2022-10-25T21:06:01.145Z,6.83
2022-10-25T21:08:28.382Z,6.27
2022-10-25T21:10:55.602Z,6.50
2022-10-25T21:13:23.097Z,6.00
2022-10-25T21:15:50.299Z,6.03
2022-10-25T21:18:17.378Z,6.30
2022-10-25T21:20:44.741Z,6.97
2022-10-25T21:23:11.926Z,6.37
2022-10-25T21:25:39.100Z,7.60
2022-10-25T21:28:07.026Z,5.77
2022-10-25T21:30:34.947Z,6.57
2022-10-25T21:33:03.379Z,6.50
2022-10-25T21:35:30.461Z,6.00
2022-10-25T21:37:58.935Z,6.53
2022-10-25T21:40:26.007Z,6.20
2022-10-25T21:42:53.075Z,6.37
2022-10-25T21:45:20.186Z,7.10
2022-10-25T21:47:47.332Z,6.77
2022-10-25T21:50:15.713Z,6.90
2022-10-25T21:52:42.922Z,7.37
2022-10-25T21:55:10.317Z,7.60
2022-10-25T21:57:37.434Z,6.83
2022-10-25T22:00:04.869Z,8.10
2022-10-25T22:02:32.125Z,7.87
2022-10-25T22:04:59.354Z,7.90
2022-10-25T22:07:26.483Z,7.37
2022-10-25T22:09:53.598Z,7.27
2022-10-25T22:12:20.739Z,6.40
2022-10-25T22:14:47.821Z,8.63
2022-10-25T22:17:14.852Z,6.90
2022-10-25T22:19:43.292Z,7.40
2022-10-25T22:22:10.459Z,6.90
2022-10-25T22:24:37.485Z,7.70
2022-10-25T22:27:04.545Z,6.73
2022-10-25T22:29:31.599Z,7.30
2022-10-25T22:31:58.619Z,7.00
2022-10-25T22:34:25.683Z,6.93
2022-10-25T22:36:52.692Z,7.90
2022-10-25T22:39:19.829Z,7.80
2022-10-25T22:41:49.963Z,8.17
2022-10-25T22:44:17.424Z,7.90
2022-10-25T22:46:44.494Z,8.77
2022-10-25T22:49:11.535Z,7.30
2022-10-25T22:51:38.650Z,8.53
2022-10-25T22:54:05.790Z,8.00
2022-10-25T22:56:32.915Z,8.43
2022-10-25T22:59:03.452Z,7.67
2022-10-25T23:01:31.416Z,8.80
2022-10-25T23:03:58.806Z,7.70
2022-10-25T23:06:26.713Z,7.47
2022-10-25T23:08:54.356Z,8.20
2022-10-25T23:11:22.318Z,9.00
2022-10-25T23:13:49.433Z,7.97
2022-10-25T23:16:16.553Z,7.03
2022-10-25T23:18:43.636Z,7.10
2022-10-25T23:21:14.564Z,7.60
2022-10-25T23:23:41.821Z,7.47
2022-10-25T23:26:09.879Z,7.30
2022-10-25T23:28:36.916Z,8.30
2022-10-25T23:31:04.716Z,8.97
2022-10-25T23:33:32.187Z,8.70
2022-10-25T23:36:05.478Z,7.70
2022-10-25T23:38:32.599Z,7.43
2022-10-25T23:40:59.690Z,6.50
2022-10-25T23:43:26.819Z,7.30
2022-10-25T23:45:53.829Z,6.50
2022-10-25T23:48:20.863Z,6.80
2022-10-25T23:50:47.880Z,6.17
2022-10-25T23:53:14.916Z,6.30
2022-10-25T23:55:41.949Z,6.30
2022-10-25T23:58:08.974Z,7.93
